Flight Track Log - Related Links

Times and Time Zones

All times are in EDT time to prevent confusion due to time zone crossing. See the ASQ4252 flight status page for this flight to view local times or setup timezone preferences in your user account.

Time Position Orientation Groundspeed Altitude Reporting Facility
EDT Latitude Longitude Course Direction KTS MPH feet Rate Location/Type
Fri 05:54:35 AM 43.6469 -70.3914 226° Southwest 193 222 1,800  Level Boston Center
Fri 05:55:35 AM 43.6272 -70.4522 246° West 207 238 4,500 2,200 Climbing Boston Center
Fri 05:56:35 AM 43.5736 -70.4886 206° Southwest 196 226 6,200 2,000 Climbing Boston Center
Fri 05:57:00 AM 43.4753 -70.2430 229° Southwest  Level FlightAware Approximate
Fri 05:57:35 AM 43.5078 -70.5250 202° Southwest 245 282 8,500  Level Boston Center
Fri 05:58:00 AM 43.4181 -70.3471 235° Southwest  Level FlightAware Approximate
Fri 05:58:35 AM 43.4375 -70.5644 202° Southwest 263 303 10,300  Level Boston Center
Fri 05:59:00 AM 43.3520 -70.4406 226° Southwest  Level FlightAware Approximate
Fri 05:59:35 AM 43.3756 -70.6006 203° Southwest 269 310 12,000  Level Boston Center
Fri 06:00:35 AM 43.2928 -70.6486 203° Southwest 279 321 13,200 1,050 Climbing Boston Center
Fri 06:01:35 AM 43.2164 -70.6908 202° Southwest 316 364 14,100 1,200 Climbing Boston Center
Fri 06:02:35 AM 43.1236 -70.7503 205° Southwest 330 380 15,600 1,300 Climbing Boston Center
Fri 06:03:35 AM 43.0514 -70.8036 208° Southwest 336 387 16,700 1,100 Climbing Boston Center
Fri 06:04:35 AM 42.9606 -70.8683 208° Southwest 336 387 17,800 1,050 Climbing Boston Center
Fri 06:05:35 AM 42.8842 -70.9183 206° Southwest 336 387 18,800 1,000 Climbing Boston Center
Fri 06:06:35 AM 42.8036 -70.9714 206° Southwest 341 392 19,800 1,200 Climbing Boston Center
Fri 06:07:35 AM 42.7144 -71.0158 200° South 341 392 21,200 1,400 Climbing Boston Center
Fri 06:08:35 AM 42.6275 -71.0575 199° South 341 392 22,600 1,350 Climbing Boston Center
Fri 06:09:35 AM 42.5447 -71.0986 200° South 328 377 23,900 1,250 Climbing Boston Center
Fri 06:10:35 AM 42.4869 -71.1675 221° Southwest 288 331 25,100 1,050 Climbing Boston Center
Fri 06:11:35 AM 42.4694 -71.2664 257° West 273 314 26,000 850 Climbing Boston Center
Fri 06:12:35 AM 42.4475 -71.3708 254° West 273 314 26,800 750 Climbing Boston Center
Fri 06:13:35 AM 42.4275 -71.4781 256° West 293 337 27,500 600 Climbing Boston Center
Fri 06:14:35 AM 42.3994 -71.5939 252° West 305 351 28,000 227 Climbing Boston Center
Fri 06:15:47 AM 42.3692 -71.7403 254° West 325 374 28,000  Level Boston Center
Fri 06:16:47 AM 42.3428 -71.8700 255° West 347 399 28,000  Level Boston Center
Fri 06:17:47 AM 42.3142 -72.0078 254° West 367 422 28,000  Level Boston Center
Fri 06:18:47 AM 42.2833 -72.1428 253° West 374 430 28,000  Level Boston Center
Fri 06:19:47 AM 42.2544 -72.2803 254° West 379 436 28,000  Level Boston Center
Fri 06:20:47 AM 42.2253 -72.4206 254° West 379 436 28,000 100 Level Boston Center
Fri 06:21:47 AM 42.1961 -72.5606 254° West 379 436 28,200 1,050 Climbing Boston Center
Fri 06:22:47 AM 42.1667 -72.6894 253° West 374 430 30,100 1,900 Climbing Boston Center
Fri 06:23:47 AM 42.1164 -72.7956 237° Southwest 355 409 32,000 1,500 Climbing Boston Center
Fri 06:24:47 AM 42.0597 -72.8958 233° Southwest 327 376 33,100 1,000 Climbing Boston Center
Fri 06:25:59 AM 42.0053 -72.9850 231° Southwest 327 376 34,200 909 Climbing Boston Center
Fri 06:26:59 AM 41.9336 -73.1097 232° Southwest 343 395 35,100 900 Climbing Boston Center
Fri 06:27:59 AM 41.8853 -73.1875 230° Southwest 335 386 36,000 450 Climbing Boston Center
Fri 06:28:59 AM 41.8283 -73.2842 232° Southwest 330 380 36,000  Level Boston Center
Fri 06:29:59 AM 41.7692 -73.3864 232° Southwest 336 387 36,000  Level Boston Center
Fri 06:30:59 AM 41.7056 -73.4911 231° Southwest 348 400 36,000  Level Boston Center
Fri 06:31:59 AM 41.6464 -73.5986 234° Southwest 360 414 36,000 -50 Level Boston Center
Fri 06:32:59 AM 41.6344 -73.7400 264° West 348 400 35,900 -500 Descending Boston Center
Fri 06:33:59 AM 41.6286 -73.8703 267° West 354 407 35,000 -1,000 Descending Boston Center
Fri 06:34:59 AM 41.5586 -73.9547 222° Southwest 350 403 33,900 -1,009 Descending Boston Center
Fri 06:35:52 AM 41.4833 -74.0278 216° Southwest 363 418 33,100 -1,000 Descending New York Center
Fri 06:36:53 AM 41.3889 -74.1225 217° Southwest 370 426 32,000 -595 Descending New York Center
Fri 06:37:53 AM 41.3203 -74.1911 217° Southwest 383 441 31,900 -504 Descending New York Center
Fri 06:38:52 AM 41.2219 -74.2825 215° Southwest 393 452 31,000 -942 Descending New York Center
Fri 06:39:54 AM 41.1297 -74.3658 214° Southwest 399 459 30,000 -976 Descending New York Center
Fri 06:40:55 AM 41.0394 -74.4600 218° Southwest 404 465 29,000 -1,017 Descending New York Center
Fri 06:41:52 AM 40.9469 -74.5483 216° Southwest 411 473 28,000 -504 Descending New York Center
Fri 06:42:54 AM 40.8808 -74.6600 232° Southwest 396 456 28,000  Level New York Center
Fri 06:43:52 AM 40.8411 -74.7922 248° West 391 450 28,000  Level New York Center
Fri 06:44:53 AM 40.7986 -74.9350 249° West 401 461 28,000 -198 Level New York Center
Fri 06:45:53 AM 40.7564 -75.0694 248° West 401 461 27,600 -744 Descending New York Center
Fri 06:46:54 AM 40.7181 -75.1983 249° West 401 461 26,500 -1,059 Descending New York Center
Fri 06:47:52 AM 40.6803 -75.3164 247° West 377 434 25,500 -1,050 Descending New York Center
Fri 06:48:54 AM 40.6381 -75.4367 245° Southwest 370 426 24,400 -1,073 Descending New York Center
Fri 06:49:55 AM 40.5878 -75.5506 240° Southwest 365 420 23,300 -1,041 Descending New York Center
Fri 06:50:55 AM 40.5558 -75.6714 251° West 360 414 22,300 -1,119 Descending New York Center
Fri 06:51:53 AM 40.4944 -75.7925 236° Southwest 349 402 21,100 -1,150 Descending New York Center
Fri 06:52:55 AM 40.4233 -75.8911 227° Southwest 369 425 20,000 -550 Descending New York Center
Fri 06:53:53 AM 40.3464 -75.9861 223° Southwest 380 437 20,000 -101 Level New York Center
Fri 06:54:54 AM 40.2731 -76.0867 226° Southwest 385 443 19,800 -737 Descending New York Center
Fri 06:56:44 AM 40.1333 -76.2667 225° Southwest 369 425 17,900 -1,024 Descending Potomac TRACON
Fri 06:57:44 AM 40.0833 -76.3667 237° Southwest 371 427 16,900 -1,000 Descending Potomac TRACON
Fri 06:58:38 AM 40.0333 -76.4667 237° Southwest 359 413 16,000 -947 Descending Potomac TRACON
Fri 06:59:38 AM 39.9833 -76.5833 241° Southwest 363 418 15,100 -526 Descending Potomac TRACON
Fri 07:00:32 AM 39.9333 -76.6833 237° Southwest 361 415 15,000 -53 Descending Potomac TRACON
Fri 07:01:32 AM 39.9000 -76.7833 247° West 306 352 15,000 -50 Level Potomac TRACON
Fri 07:02:33 AM 39.8500 -76.8667 232° Southwest 300 345 14,900 -496 Descending Potomac TRACON
Fri 07:03:33 AM 39.8167 -76.9667 247° West 291 335 14,000 -950 Descending Potomac TRACON
Fri 07:04:33 AM 39.7667 -77.0500 232° Southwest 286 329 13,000 -1,053 Descending Potomac TRACON
Fri 07:05:27 AM 39.7333 -77.1167 237° Southwest 280 322 12,000 -1,053 Descending Potomac TRACON
Fri 07:06:27 AM 39.6833 -77.2167 237° Southwest 278 320 11,000 -1,053 Descending Potomac TRACON
Fri 07:07:21 AM 39.6500 -77.2833 237° Southwest 278 320 10,000 -1,263 Descending Potomac TRACON
Fri 07:08:21 AM 39.6000 -77.3667 232° Southwest 276 318 8,600 -1,500 Descending Potomac TRACON
Fri 07:09:21 AM 39.5500 -77.4167 218° Southwest 268 308 7,000 -1,526 Descending Potomac TRACON
Fri 07:10:15 AM 39.4833 -77.4333 191° South 260 299 5,700 -1,200 Descending Potomac TRACON
Fri 07:11:16 AM 39.4167 -77.4333 180° South 235 270 4,700 -843 Descending Potomac TRACON
Fri 07:12:16 AM 39.3500 -77.4333 180° South 200 230 4,000 -454 Descending Potomac TRACON
Fri 07:13:15 AM 39.3000 -77.4333 180° South 199 229 3,800 -353 Descending Potomac TRACON
Fri 07:14:15 AM 39.2500 -77.4333 180° South 185 213 3,300 -417 Descending Potomac TRACON
Fri 07:15:10 AM 39.2000 -77.4333 180° South 186 214 3,000 -157 Descending Potomac TRACON
Fri 07:16:10 AM 39.1500 -77.4333 180° South 180 207 3,000  Level Potomac TRACON
Fri 07:17:09 AM 39.1000 -77.4333 180° South 181 208 3,000  Level Potomac TRACON

Login

Don't have an account? Register now (free) for customized features, flight alerts, and more!